sensor_id;sensor_type;location;lat;lon;timestamp;P1;durP1;ratioP1;P2;durP2;ratioP2
19923;SDS011;10124;53.068;18.224;2023-01-29T00:00:12;33.67;;;20.83;;
19923;SDS011;10124;53.068;18.224;2023-01-29T00:03:01;33.33;;;20.73;;
19923;SDS011;10124;53.068;18.224;2023-01-29T00:05:28;34.13;;;20.87;;
19923;SDS011;10124;53.068;18.224;2023-01-29T00:07:57;32.40;;;20.50;;
19923;SDS011;10124;53.068;18.224;2023-01-29T00:10:25;33.13;;;20.17;;
19923;SDS011;10124;53.068;18.224;2023-01-29T00:12:52;30.63;;;21.10;;
19923;SDS011;10124;53.068;18.224;2023-01-29T00:15:20;31.97;;;19.27;;
19923;SDS011;10124;53.068;18.224;2023-01-29T00:17:48;33.90;;;21.57;;
19923;SDS011;10124;53.068;18.224;2023-01-29T00:20:15;34.03;;;20.90;;
19923;SDS011;10124;53.068;18.224;2023-01-29T00:22:44;34.97;;;20.77;;
19923;SDS011;10124;53.068;18.224;2023-01-29T00:25:14;32.83;;;20.20;;
19923;SDS011;10124;53.068;18.224;2023-01-29T00:27:41;33.13;;;20.67;;
19923;SDS011;10124;53.068;18.224;2023-01-29T00:30:10;33.13;;;19.90;;
19923;SDS011;10124;53.068;18.224;2023-01-29T00:32:39;28.17;;;19.30;;
19923;SDS011;10124;53.068;18.224;2023-01-29T00:35:07;32.23;;;19.70;;
19923;SDS011;10124;53.068;18.224;2023-01-29T00:37:35;28.87;;;18.77;;
19923;SDS011;10124;53.068;18.224;2023-01-29T00:40:03;32.53;;;20.00;;
19923;SDS011;10124;53.068;18.224;2023-01-29T00:42:32;31.53;;;18.27;;
19923;SDS011;10124;53.068;18.224;2023-01-29T00:45:18;29.93;;;18.20;;
19923;SDS011;10124;53.068;18.224;2023-01-29T00:47:46;28.87;;;18.30;;
19923;SDS011;10124;53.068;18.224;2023-01-29T00:50:14;36.50;;;18.53;;
19923;SDS011;10124;53.068;18.224;2023-01-29T00:52:42;27.67;;;17.77;;
19923;SDS011;10124;53.068;18.224;2023-01-29T00:55:10;30.17;;;18.20;;
19923;SDS011;10124;53.068;18.224;2023-01-29T00:57:38;29.63;;;17.73;;
19923;SDS011;10124;53.068;18.224;2023-01-29T01:00:07;28.00;;;18.13;;
19923;SDS011;10124;53.068;18.224;2023-01-29T01:02:37;30.67;;;18.70;;
19923;SDS011;10124;53.068;18.224;2023-01-29T01:05:26;26.77;;;16.47;;
19923;SDS011;10124;53.068;18.224;2023-01-29T01:07:55;26.07;;;15.80;;
19923;SDS011;10124;53.068;18.224;2023-01-29T01:10:31;27.27;;;16.43;;
19923;SDS011;10124;53.068;18.224;2023-01-29T01:13:00;28.77;;;16.07;;
19923;SDS011;10124;53.068;18.224;2023-01-29T01:15:31;23.03;;;15.57;;
19923;SDS011;10124;53.068;18.224;2023-01-29T01:18:02;23.47;;;14.63;;
19923;SDS011;10124;53.068;18.224;2023-01-29T01:20:32;23.00;;;15.77;;
19923;SDS011;10124;53.068;18.224;2023-01-29T01:23:01;24.37;;;14.53;;
19923;SDS011;10124;53.068;18.224;2023-01-29T01:25:29;22.03;;;13.77;;
19923;SDS011;10124;53.068;18.224;2023-01-29T01:27:58;23.63;;;14.33;;
19923;SDS011;10124;53.068;18.224;2023-01-29T01:30:28;23.57;;;12.93;;
19923;SDS011;10124;53.068;18.224;2023-01-29T01:32:57;20.90;;;13.40;;
19923;SDS011;10124;53.068;18.224;2023-01-29T01:35:26;23.33;;;14.23;;
19923;SDS011;10124;53.068;18.224;2023-01-29T01:37:54;22.93;;;13.90;;
19923;SDS011;10124;53.068;18.224;2023-01-29T01:40:22;26.10;;;16.20;;
19923;SDS011;10124;53.068;18.224;2023-01-29T01:42:52;20.93;;;13.33;;
19923;SDS011;10124;53.068;18.224;2023-01-29T01:45:31;17.17;;;11.60;;
19923;SDS011;10124;53.068;18.224;2023-01-29T01:50:46;18.83;;;10.50;;
19923;SDS011;10124;53.068;18.224;2023-01-29T01:53:59;18.53;;;10.17;;
19923;SDS011;10124;53.068;18.224;2023-01-29T01:56:13;14.43;;;10.30;;
19923;SDS011;10124;53.068;18.224;2023-01-29T01:58:56;16.53;;;10.03;;
19923;SDS011;10124;53.068;18.224;2023-01-29T02:01:25;15.33;;;9.50;;
19923;SDS011;10124;53.068;18.224;2023-01-29T02:04:01;15.53;;;10.00;;
19923;SDS011;10124;53.068;18.224;2023-01-29T02:06:50;17.97;;;11.37;;
19923;SDS011;10124;53.068;18.224;2023-01-29T02:09:43;16.07;;;9.83;;
19923;SDS011;10124;53.068;18.224;2023-01-29T02:12:20;14.30;;;9.77;;
19923;SDS011;10124;53.068;18.224;2023-01-29T02:14:49;13.70;;;9.67;;
19923;SDS011;10124;53.068;18.224;2023-01-29T02:17:18;13.77;;;8.80;;
19923;SDS011;10124;53.068;18.224;2023-01-29T02:28:43;14.27;;;8.10;;
19923;SDS011;10124;53.068;18.224;2023-01-29T02:37:25;11.40;;;7.73;;
19923;SDS011;10124;53.068;18.224;2023-01-29T02:42:32;13.57;;;8.60;;
19923;SDS011;10124;53.068;18.224;2023-01-29T02:47:47;12.20;;;7.93;;
19923;SDS011;10124;53.068;18.224;2023-01-29T02:55:56;10.87;;;8.40;;
19923;SDS011;10124;53.068;18.224;2023-01-29T03:01:03;13.20;;;8.00;;
19923;SDS011;10124;53.068;18.224;2023-01-29T03:03:41;14.10;;;8.40;;
19923;SDS011;10124;53.068;18.224;2023-01-29T03:06:20;11.87;;;8.50;;
19923;SDS011;10124;53.068;18.224;2023-01-29T03:09:09;12.83;;;9.17;;
19923;SDS011;10124;53.068;18.224;2023-01-29T03:11:45;11.57;;;8.33;;
19923;SDS011;10124;53.068;18.224;2023-01-29T03:14:23;13.33;;;8.87;;
19923;SDS011;10124;53.068;18.224;2023-01-29T03:17:16;15.10;;;8.87;;
19923;SDS011;10124;53.068;18.224;2023-01-29T03:19:47;14.57;;;8.10;;
19923;SDS011;10124;53.068;18.224;2023-01-29T03:22:20;12.57;;;8.53;;
19923;SDS011;10124;53.068;18.224;2023-01-29T03:24:50;14.40;;;8.93;;
19923;SDS011;10124;53.068;18.224;2023-01-29T03:27:48;12.00;;;7.43;;
19923;SDS011;10124;53.068;18.224;2023-01-29T03:30:49;12.53;;;8.23;;
19923;SDS011;10124;53.068;18.224;2023-01-29T03:33:48;12.57;;;7.83;;
19923;SDS011;10124;53.068;18.224;2023-01-29T03:36:23;16.43;;;8.73;;
19923;SDS011;10124;53.068;18.224;2023-01-29T03:39:12;14.03;;;7.63;;
19923;SDS011;10124;53.068;18.224;2023-01-29T03:42:26;14.53;;;8.83;;
19923;SDS011;10124;53.068;18.224;2023-01-29T03:49:56;13.97;;;8.17;;
19923;SDS011;10124;53.068;18.224;2023-01-29T03:52:39;13.60;;;7.57;;
19923;SDS011;10124;53.068;18.224;2023-01-29T04:00:37;16.27;;;8.73;;
19923;SDS011;10124;53.068;18.224;2023-01-29T04:05:46;11.07;;;8.23;;
19923;SDS011;10124;53.068;18.224;2023-01-29T04:09:02;15.77;;;9.23;;
19923;SDS011;10124;53.068;18.224;2023-01-29T04:11:30;13.17;;;8.60;;
19923;SDS011;10124;53.068;18.224;2023-01-29T04:14:00;13.97;;;7.67;;
19923;SDS011;10124;53.068;18.224;2023-01-29T04:16:34;11.17;;;7.67;;
19923;SDS011;10124;53.068;18.224;2023-01-29T04:19:29;12.17;;;9.30;;
19923;SDS011;10124;53.068;18.224;2023-01-29T04:22:02;17.00;;;9.03;;
19923;SDS011;10124;53.068;18.224;2023-01-29T04:24:58;12.87;;;7.60;;
19923;SDS011;10124;53.068;18.224;2023-01-29T04:27:38;11.90;;;8.20;;
19923;SDS011;10124;53.068;18.224;2023-01-29T04:38:09;14.90;;;8.60;;
19923;SDS011;10124;53.068;18.224;2023-01-29T04:40:56;13.73;;;8.00;;
19923;SDS011;10124;53.068;18.224;2023-01-29T04:46:45;15.43;;;8.33;;
19923;SDS011;10124;53.068;18.224;2023-01-29T04:52:07;12.57;;;7.90;;
19923;SDS011;10124;53.068;18.224;2023-01-29T04:55:18;11.47;;;8.23;;
19923;SDS011;10124;53.068;18.224;2023-01-29T04:58:04;13.30;;;8.30;;
19923;SDS011;10124;53.068;18.224;2023-01-29T05:00:53;14.83;;;8.00;;
19923;SDS011;10124;53.068;18.224;2023-01-29T05:03:22;13.07;;;7.57;;
19923;SDS011;10124;53.068;18.224;2023-01-29T05:05:53;11.33;;;8.13;;
19923;SDS011;10124;53.068;18.224;2023-01-29T05:08:23;11.00;;;7.77;;
19923;SDS011;10124;53.068;18.224;2023-01-29T05:10:52;18.00;;;8.83;;
19923;SDS011;10124;53.068;18.224;2023-01-29T05:13:21;15.73;;;8.60;;
19923;SDS011;10124;53.068;18.224;2023-01-29T05:15:51;15.60;;;9.40;;
19923;SDS011;10124;53.068;18.224;2023-01-29T05:18:23;13.07;;;8.07;;
19923;SDS011;10124;53.068;18.224;2023-01-29T05:20:51;10.27;;;7.90;;
19923;SDS011;10124;53.068;18.224;2023-01-29T05:23:22;15.40;;;8.40;;
19923;SDS011;10124;53.068;18.224;2023-01-29T05:25:50;22.17;;;9.90;;
19923;SDS011;10124;53.068;18.224;2023-01-29T05:28:18;12.00;;;8.67;;
19923;SDS011;10124;53.068;18.224;2023-01-29T05:30:47;13.30;;;8.37;;
19923;SDS011;10124;53.068;18.224;2023-01-29T05:33:18;13.27;;;9.07;;
19923;SDS011;10124;53.068;18.224;2023-01-29T05:35:53;15.53;;;9.67;;
19923;SDS011;10124;53.068;18.224;2023-01-29T05:38:21;14.93;;;8.90;;
19923;SDS011;10124;53.068;18.224;2023-01-29T05:40:49;17.43;;;10.53;;
19923;SDS011;10124;53.068;18.224;2023-01-29T05:43:18;15.07;;;10.20;;
19923;SDS011;10124;53.068;18.224;2023-01-29T05:45:51;16.73;;;11.60;;
19923;SDS011;10124;53.068;18.224;2023-01-29T05:48:26;14.50;;;10.43;;
19923;SDS011;10124;53.068;18.224;2023-01-29T05:51:04;14.77;;;11.00;;
19923;SDS011;10124;53.068;18.224;2023-01-29T05:53:32;18.03;;;11.53;;
19923;SDS011;10124;53.068;18.224;2023-01-29T05:56:00;17.30;;;12.17;;
19923;SDS011;10124;53.068;18.224;2023-01-29T05:58:29;22.03;;;12.43;;
19923;SDS011;10124;53.068;18.224;2023-01-29T06:01:06;21.57;;;12.90;;
19923;SDS011;10124;53.068;18.224;2023-01-29T06:03:35;22.33;;;13.20;;
19923;SDS011;10124;53.068;18.224;2023-01-29T06:06:03;18.77;;;13.00;;
19923;SDS011;10124;53.068;18.224;2023-01-29T06:08:31;24.40;;;13.13;;
19923;SDS011;10124;53.068;18.224;2023-01-29T06:10:59;18.63;;;13.43;;
19923;SDS011;10124;53.068;18.224;2023-01-29T06:13:26;21.97;;;12.93;;
19923;SDS011;10124;53.068;18.224;2023-01-29T06:15:54;22.77;;;12.73;;
19923;SDS011;10124;53.068;18.224;2023-01-29T06:18:22;18.87;;;13.20;;
19923;SDS011;10124;53.068;18.224;2023-01-29T06:20:49;19.80;;;13.20;;
19923;SDS011;10124;53.068;18.224;2023-01-29T06:23:17;21.80;;;13.10;;
19923;SDS011;10124;53.068;18.224;2023-01-29T06:25:44;26.30;;;14.73;;
19923;SDS011;10124;53.068;18.224;2023-01-29T06:28:11;19.53;;;13.03;;
19923;SDS011;10124;53.068;18.224;2023-01-29T06:30:39;19.60;;;13.57;;
19923;SDS011;10124;53.068;18.224;2023-01-29T06:33:06;20.33;;;14.30;;
19923;SDS011;10124;53.068;18.224;2023-01-29T06:35:34;24.60;;;16.03;;
19923;SDS011;10124;53.068;18.224;2023-01-29T06:38:01;22.47;;;13.80;;
19923;SDS011;10124;53.068;18.224;2023-01-29T06:40:29;19.07;;;13.47;;
19923;SDS011;10124;53.068;18.224;2023-01-29T06:42:56;21.87;;;15.77;;
19923;SDS011;10124;53.068;18.224;2023-01-29T06:45:26;22.70;;;15.17;;
19923;SDS011;10124;53.068;18.224;2023-01-29T06:47:54;26.60;;;15.00;;
19923;SDS011;10124;53.068;18.224;2023-01-29T06:50:22;18.47;;;12.00;;
19923;SDS011;10124;53.068;18.224;2023-01-29T06:52:50;19.33;;;12.70;;
19923;SDS011;10124;53.068;18.224;2023-01-29T06:55:17;18.27;;;13.43;;
19923;SDS011;10124;53.068;18.224;2023-01-29T06:57:45;24.27;;;13.93;;
19923;SDS011;10124;53.068;18.224;2023-01-29T07:00:14;16.33;;;13.07;;
19923;SDS011;10124;53.068;18.224;2023-01-29T07:02:42;20.03;;;13.37;;
19923;SDS011;10124;53.068;18.224;2023-01-29T07:05:09;20.30;;;13.50;;
19923;SDS011;10124;53.068;18.224;2023-01-29T07:07:37;17.93;;;12.97;;
19923;SDS011;10124;53.068;18.224;2023-01-29T07:10:05;16.90;;;12.60;;
19923;SDS011;10124;53.068;18.224;2023-01-29T07:12:33;17.90;;;13.27;;
19923;SDS011;10124;53.068;18.224;2023-01-29T07:15:01;21.77;;;13.83;;
19923;SDS011;10124;53.068;18.224;2023-01-29T07:17:29;19.77;;;15.40;;
19923;SDS011;10124;53.068;18.224;2023-01-29T07:19:57;26.90;;;16.30;;
19923;SDS011;10124;53.068;18.224;2023-01-29T07:22:25;23.37;;;15.37;;
19923;SDS011;10124;53.068;18.224;2023-01-29T07:24:53;26.93;;;15.43;;
19923;SDS011;10124;53.068;18.224;2023-01-29T07:27:21;25.60;;;18.50;;
19923;SDS011;10124;53.068;18.224;2023-01-29T07:29:48;23.77;;;14.87;;
19923;SDS011;10124;53.068;18.224;2023-01-29T07:32:17;25.07;;;14.23;;
19923;SDS011;10124;53.068;18.224;2023-01-29T07:34:44;22.30;;;15.10;;
19923;SDS011;10124;53.068;18.224;2023-01-29T07:37:12;24.77;;;15.90;;
19923;SDS011;10124;53.068;18.224;2023-01-29T07:39:40;23.60;;;14.60;;
19923;SDS011;10124;53.068;18.224;2023-01-29T07:42:08;22.10;;;14.87;;
19923;SDS011;10124;53.068;18.224;2023-01-29T07:44:36;23.33;;;16.87;;
19923;SDS011;10124;53.068;18.224;2023-01-29T07:47:04;22.50;;;16.90;;
19923;SDS011;10124;53.068;18.224;2023-01-29T07:49:32;30.43;;;19.13;;
19923;SDS011;10124;53.068;18.224;2023-01-29T07:52:00;25.20;;;16.17;;
19923;SDS011;10124;53.068;18.224;2023-01-29T07:54:28;20.87;;;15.03;;
19923;SDS011;10124;53.068;18.224;2023-01-29T07:56:57;22.57;;;16.00;;
19923;SDS011;10124;53.068;18.224;2023-01-29T07:59:24;23.20;;;14.73;;
19923;SDS011;10124;53.068;18.224;2023-01-29T08:01:52;19.20;;;14.67;;
19923;SDS011;10124;53.068;18.224;2023-01-29T08:04:20;22.90;;;15.40;;
19923;SDS011;10124;53.068;18.224;2023-01-29T08:06:48;23.17;;;16.53;;
19923;SDS011;10124;53.068;18.224;2023-01-29T08:09:16;27.80;;;18.77;;
19923;SDS011;10124;53.068;18.224;2023-01-29T08:11:44;21.97;;;15.83;;
19923;SDS011;10124;53.068;18.224;2023-01-29T08:14:12;21.77;;;15.17;;
19923;SDS011;10124;53.068;18.224;2023-01-29T08:16:40;21.03;;;15.00;;
19923;SDS011;10124;53.068;18.224;2023-01-29T08:19:08;17.73;;;14.17;;
19923;SDS011;10124;53.068;18.224;2023-01-29T08:21:35;18.70;;;13.40;;
19923;SDS011;10124;53.068;18.224;2023-01-29T08:24:04;19.53;;;13.10;;
19923;SDS011;10124;53.068;18.224;2023-01-29T08:26:32;20.90;;;13.50;;
19923;SDS011;10124;53.068;18.224;2023-01-29T08:29:01;18.40;;;13.17;;
19923;SDS011;10124;53.068;18.224;2023-01-29T08:31:30;19.50;;;13.30;;
19923;SDS011;10124;53.068;18.224;2023-01-29T08:33:59;16.77;;;12.90;;
19923;SDS011;10124;53.068;18.224;2023-01-29T08:36:28;19.27;;;14.00;;
19923;SDS011;10124;53.068;18.224;2023-01-29T08:38:56;30.07;;;15.07;;
19923;SDS011;10124;53.068;18.224;2023-01-29T08:41:25;17.47;;;13.83;;
19923;SDS011;10124;53.068;18.224;2023-01-29T08:43:54;19.70;;;14.37;;
19923;SDS011;10124;53.068;18.224;2023-01-29T08:46:24;17.40;;;13.33;;
19923;SDS011;10124;53.068;18.224;2023-01-29T08:48:53;19.77;;;14.77;;
19923;SDS011;10124;53.068;18.224;2023-01-29T08:51:22;17.27;;;13.67;;
19923;SDS011;10124;53.068;18.224;2023-01-29T08:53:55;19.50;;;14.03;;
19923;SDS011;10124;53.068;18.224;2023-01-29T08:56:23;22.93;;;15.80;;
19923;SDS011;10124;53.068;18.224;2023-01-29T08:58:52;22.23;;;15.73;;
19923;SDS011;10124;53.068;18.224;2023-01-29T09:01:21;25.03;;;15.43;;
19923;SDS011;10124;53.068;18.224;2023-01-29T09:03:51;20.87;;;14.80;;
19923;SDS011;10124;53.068;18.224;2023-01-29T09:06:20;20.90;;;15.10;;
19923;SDS011;10124;53.068;18.224;2023-01-29T09:08:48;23.17;;;16.50;;
19923;SDS011;10124;53.068;18.224;2023-01-29T09:11:16;24.00;;;15.60;;
19923;SDS011;10124;53.068;18.224;2023-01-29T09:13:45;19.40;;;14.17;;
19923;SDS011;10124;53.068;18.224;2023-01-29T09:16:13;16.87;;;13.37;;
19923;SDS011;10124;53.068;18.224;2023-01-29T09:18:41;18.47;;;13.73;;
19923;SDS011;10124;53.068;18.224;2023-01-29T09:21:09;23.43;;;15.17;;
19923;SDS011;10124;53.068;18.224;2023-01-29T09:23:37;20.13;;;14.37;;
19923;SDS011;10124;53.068;18.224;2023-01-29T09:26:05;19.70;;;14.97;;
19923;SDS011;10124;53.068;18.224;2023-01-29T09:28:34;23.70;;;15.73;;
19923;SDS011;10124;53.068;18.224;2023-01-29T09:31:02;23.50;;;16.87;;
19923;SDS011;10124;53.068;18.224;2023-01-29T09:33:30;23.90;;;17.83;;
19923;SDS011;10124;53.068;18.224;2023-01-29T09:35:58;29.33;;;17.60;;
19923;SDS011;10124;53.068;18.224;2023-01-29T09:38:29;24.57;;;16.10;;
19923;SDS011;10124;53.068;18.224;2023-01-29T09:43:54;24.27;;;16.83;;
19923;SDS011;10124;53.068;18.224;2023-01-29T09:46:38;23.83;;;16.47;;
19923;SDS011;10124;53.068;18.224;2023-01-29T09:51:38;25.63;;;18.23;;
19923;SDS011;10124;53.068;18.224;2023-01-29T09:54:28;25.80;;;17.67;;
19923;SDS011;10124;53.068;18.224;2023-01-29T09:57:01;30.00;;;17.90;;
19923;SDS011;10124;53.068;18.224;2023-01-29T09:59:29;23.87;;;17.73;;
19923;SDS011;10124;53.068;18.224;2023-01-29T10:02:02;22.43;;;17.57;;
19923;SDS011;10124;53.068;18.224;2023-01-29T10:04:44;26.90;;;17.90;;
19923;SDS011;10124;53.068;18.224;2023-01-29T10:16:32;25.10;;;17.37;;
19923;SDS011;10124;53.068;18.224;2023-01-29T10:19:13;28.17;;;18.13;;
19923;SDS011;10124;53.068;18.224;2023-01-29T10:25:12;26.53;;;18.57;;
19923;SDS011;10124;53.068;18.224;2023-01-29T10:27:50;27.33;;;17.97;;
19923;SDS011;10124;53.068;18.224;2023-01-29T10:30:22;30.50;;;18.80;;
19923;SDS011;10124;53.068;18.224;2023-01-29T10:33:00;32.20;;;19.37;;
19923;SDS011;10124;53.068;18.224;2023-01-29T10:35:33;26.07;;;18.77;;
19923;SDS011;10124;53.068;18.224;2023-01-29T10:48:46;29.97;;;20.53;;
19923;SDS011;10124;53.068;18.224;2023-01-29T10:53:57;31.50;;;20.30;;
19923;SDS011;10124;53.068;18.224;2023-01-29T10:56:47;32.53;;;21.80;;
19923;SDS011;10124;53.068;18.224;2023-01-29T11:02:26;31.57;;;20.13;;
19923;SDS011;10124;53.068;18.224;2023-01-29T11:04:55;37.17;;;22.47;;
19923;SDS011;10124;53.068;18.224;2023-01-29T11:07:23;32.57;;;21.40;;
19923;SDS011;10124;53.068;18.224;2023-01-29T11:09:59;31.93;;;21.10;;
19923;SDS011;10124;53.068;18.224;2023-01-29T11:12:34;33.80;;;21.33;;
19923;SDS011;10124;53.068;18.224;2023-01-29T11:20:41;31.67;;;20.87;;
19923;SDS011;10124;53.068;18.224;2023-01-29T11:23:26;36.70;;;21.37;;
19923;SDS011;10124;53.068;18.224;2023-01-29T11:25:59;34.27;;;21.97;;
19923;SDS011;10124;53.068;18.224;2023-01-29T11:28:34;34.33;;;22.43;;
19923;SDS011;10124;53.068;18.224;2023-01-29T11:31:14;41.73;;;23.50;;
19923;SDS011;10124;53.068;18.224;2023-01-29T11:34:02;30.67;;;20.80;;
19923;SDS011;10124;53.068;18.224;2023-01-29T11:36:36;37.47;;;22.70;;
19923;SDS011;10124;53.068;18.224;2023-01-29T11:41:46;35.73;;;23.93;;
19923;SDS011;10124;53.068;18.224;2023-01-29T11:47:21;32.03;;;20.17;;
19923;SDS011;10124;53.068;18.224;2023-01-29T11:49:59;35.07;;;22.83;;
19923;SDS011;10124;53.068;18.224;2023-01-29T11:52:34;34.40;;;22.83;;
19923;SDS011;10124;53.068;18.224;2023-01-29T11:55:06;31.37;;;23.23;;
19923;SDS011;10124;53.068;18.224;2023-01-29T11:57:52;40.10;;;24.07;;
19923;SDS011;10124;53.068;18.224;2023-01-29T12:00:32;40.53;;;24.83;;
19923;SDS011;10124;53.068;18.224;2023-01-29T12:03:20;35.50;;;22.90;;
19923;SDS011;10124;53.068;18.224;2023-01-29T12:06:23;35.73;;;23.87;;
19923;SDS011;10124;53.068;18.224;2023-01-29T12:09:09;39.00;;;23.03;;
19923;SDS011;10124;53.068;18.224;2023-01-29T12:11:46;35.60;;;23.37;;
19923;SDS011;10124;53.068;18.224;2023-01-29T12:17:01;42.40;;;25.33;;
19923;SDS011;10124;53.068;18.224;2023-01-29T12:19:51;35.47;;;23.10;;
19923;SDS011;10124;53.068;18.224;2023-01-29T12:22:37;38.57;;;24.30;;
19923;SDS011;10124;53.068;18.224;2023-01-29T12:25:19;37.97;;;24.80;;
19923;SDS011;10124;53.068;18.224;2023-01-29T12:28:06;38.40;;;23.90;;
19923;SDS011;10124;53.068;18.224;2023-01-29T12:38:56;34.03;;;24.77;;
19923;SDS011;10124;53.068;18.224;2023-01-29T12:43:55;40.43;;;24.43;;
19923;SDS011;10124;53.068;18.224;2023-01-29T12:46:33;38.90;;;24.87;;
19923;SDS011;10124;53.068;18.224;2023-01-29T12:49:26;39.73;;;25.00;;
19923;SDS011;10124;53.068;18.224;2023-01-29T12:54:34;36.90;;;23.53;;
19923;SDS011;10124;53.068;18.224;2023-01-29T12:57:16;42.13;;;24.27;;
19923;SDS011;10124;53.068;18.224;2023-01-29T13:00:28;42.50;;;24.40;;
19923;SDS011;10124;53.068;18.224;2023-01-29T13:05:28;40.70;;;25.33;;
19923;SDS011;10124;53.068;18.224;2023-01-29T13:08:02;41.63;;;26.03;;
19923;SDS011;10124;53.068;18.224;2023-01-29T13:10:43;41.03;;;25.30;;
19923;SDS011;10124;53.068;18.224;2023-01-29T13:13:22;42.40;;;25.53;;
19923;SDS011;10124;53.068;18.224;2023-01-29T13:16:09;37.60;;;23.63;;
19923;SDS011;10124;53.068;18.224;2023-01-29T13:18:43;37.67;;;24.53;;
19923;SDS011;10124;53.068;18.224;2023-01-29T13:21:17;43.00;;;25.17;;
19923;SDS011;10124;53.068;18.224;2023-01-29T13:24:19;37.63;;;23.63;;
19923;SDS011;10124;53.068;18.224;2023-01-29T13:26:47;40.83;;;24.33;;
19923;SDS011;10124;53.068;18.224;2023-01-29T13:29:20;44.03;;;26.93;;
19923;SDS011;10124;53.068;18.224;2023-01-29T13:32:00;38.73;;;25.20;;
19923;SDS011;10124;53.068;18.224;2023-01-29T13:34:30;43.10;;;26.23;;
19923;SDS011;10124;53.068;18.224;2023-01-29T13:37:01;45.10;;;26.13;;
19923;SDS011;10124;53.068;18.224;2023-01-29T13:39:39;42.47;;;25.10;;
19923;SDS011;10124;53.068;18.224;2023-01-29T13:45:08;43.47;;;29.13;;
19923;SDS011;10124;53.068;18.224;2023-01-29T13:47:49;40.40;;;24.67;;
19923;SDS011;10124;53.068;18.224;2023-01-29T13:53:06;47.60;;;28.33;;
19923;SDS011;10124;53.068;18.224;2023-01-29T13:55:45;46.97;;;29.03;;
19923;SDS011;10124;53.068;18.224;2023-01-29T13:58:18;44.87;;;25.27;;
19923;SDS011;10124;53.068;18.224;2023-01-29T14:01:10;45.73;;;28.67;;
19923;SDS011;10124;53.068;18.224;2023-01-29T14:03:42;47.50;;;28.87;;
19923;SDS011;10124;53.068;18.224;2023-01-29T14:06:41;48.33;;;28.87;;
19923;SDS011;10124;53.068;18.224;2023-01-29T14:17:15;55.67;;;29.33;;
19923;SDS011;10124;53.068;18.224;2023-01-29T14:19:49;47.27;;;27.70;;
19923;SDS011;10124;53.068;18.224;2023-01-29T14:22:19;56.40;;;29.83;;
19923;SDS011;10124;53.068;18.224;2023-01-29T14:24:52;63.43;;;32.33;;
19923;SDS011;10124;53.068;18.224;2023-01-29T14:27:22;51.03;;;29.53;;
19923;SDS011;10124;53.068;18.224;2023-01-29T14:30:06;48.63;;;28.93;;
19923;SDS011;10124;53.068;18.224;2023-01-29T14:32:37;52.73;;;30.47;;
19923;SDS011;10124;53.068;18.224;2023-01-29T14:35:22;48.03;;;28.20;;
19923;SDS011;10124;53.068;18.224;2023-01-29T14:37:59;47.20;;;27.57;;
19923;SDS011;10124;53.068;18.224;2023-01-29T14:40:30;49.53;;;27.10;;
19923;SDS011;10124;53.068;18.224;2023-01-29T14:43:02;47.43;;;27.20;;
19923;SDS011;10124;53.068;18.224;2023-01-29T14:48:48;46.90;;;27.23;;
19923;SDS011;10124;53.068;18.224;2023-01-29T14:51:15;44.53;;;25.47;;
19923;SDS011;10124;53.068;18.224;2023-01-29T14:59:18;49.87;;;26.03;;
19923;SDS011;10124;53.068;18.224;2023-01-29T15:01:52;49.77;;;27.10;;
19923;SDS011;10124;53.068;18.224;2023-01-29T15:04:25;44.37;;;26.70;;
19923;SDS011;10124;53.068;18.224;2023-01-29T15:07:00;47.03;;;26.27;;
19923;SDS011;10124;53.068;18.224;2023-01-29T15:09:45;43.50;;;26.10;;
19923;SDS011;10124;53.068;18.224;2023-01-29T15:12:49;41.43;;;23.80;;
19923;SDS011;10124;53.068;18.224;2023-01-29T15:18:08;43.97;;;26.93;;
19923;SDS011;10124;53.068;18.224;2023-01-29T15:20:41;43.20;;;25.80;;
19923;SDS011;10124;53.068;18.224;2023-01-29T15:23:23;43.37;;;26.30;;
19923;SDS011;10124;53.068;18.224;2023-01-29T15:25:56;37.63;;;23.40;;
19923;SDS011;10124;53.068;18.224;2023-01-29T15:28:30;41.17;;;25.17;;
19923;SDS011;10124;53.068;18.224;2023-01-29T15:31:00;39.73;;;23.77;;
19923;SDS011;10124;53.068;18.224;2023-01-29T15:33:31;45.20;;;27.33;;
19923;SDS011;10124;53.068;18.224;2023-01-29T15:36:00;47.13;;;26.80;;
19923;SDS011;10124;53.068;18.224;2023-01-29T15:38:35;45.97;;;24.63;;
19923;SDS011;10124;53.068;18.224;2023-01-29T15:41:16;40.07;;;24.90;;
19923;SDS011;10124;53.068;18.224;2023-01-29T15:43:47;43.50;;;27.27;;
19923;SDS011;10124;53.068;18.224;2023-01-29T15:48:56;43.63;;;26.70;;
19923;SDS011;10124;53.068;18.224;2023-01-29T15:51:26;52.97;;;26.97;;
19923;SDS011;10124;53.068;18.224;2023-01-29T15:53:59;40.60;;;25.33;;
19923;SDS011;10124;53.068;18.224;2023-01-29T15:56:36;50.53;;;27.03;;
19923;SDS011;10124;53.068;18.224;2023-01-29T15:59:08;45.90;;;27.53;;
19923;SDS011;10124;53.068;18.224;2023-01-29T16:01:50;46.30;;;28.03;;
19923;SDS011;10124;53.068;18.224;2023-01-29T16:04:25;48.50;;;29.60;;
19923;SDS011;10124;53.068;18.224;2023-01-29T16:06:57;50.70;;;31.00;;
19923;SDS011;10124;53.068;18.224;2023-01-29T16:09:26;54.93;;;29.53;;
19923;SDS011;10124;53.068;18.224;2023-01-29T16:11:56;51.17;;;28.77;;
19923;SDS011;10124;53.068;18.224;2023-01-29T16:14:25;49.13;;;29.23;;
19923;SDS011;10124;53.068;18.224;2023-01-29T16:23:58;58.33;;;32.73;;
19923;SDS011;10124;53.068;18.224;2023-01-29T16:26:31;55.57;;;31.33;;
19923;SDS011;10124;53.068;18.224;2023-01-29T16:29:07;60.97;;;32.93;;
19923;SDS011;10124;53.068;18.224;2023-01-29T16:31:40;62.13;;;33.80;;
19923;SDS011;10124;53.068;18.224;2023-01-29T16:34:20;69.23;;;32.67;;
19923;SDS011;10124;53.068;18.224;2023-01-29T16:36:57;57.40;;;32.13;;
19923;SDS011;10124;53.068;18.224;2023-01-29T16:39:32;58.80;;;34.83;;
19923;SDS011;10124;53.068;18.224;2023-01-29T16:44:55;63.03;;;33.27;;
19923;SDS011;10124;53.068;18.224;2023-01-29T16:47:34;60.17;;;34.70;;
19923;SDS011;10124;53.068;18.224;2023-01-29T16:50:25;55.97;;;32.63;;
19923;SDS011;10124;53.068;18.224;2023-01-29T16:53:20;58.07;;;32.97;;
19923;SDS011;10124;53.068;18.224;2023-01-29T16:55:50;63.50;;;33.50;;
19923;SDS011;10124;53.068;18.224;2023-01-29T16:58:19;60.77;;;32.53;;
19923;SDS011;10124;53.068;18.224;2023-01-29T17:00:52;62.77;;;35.43;;
19923;SDS011;10124;53.068;18.224;2023-01-29T17:03:27;67.50;;;34.50;;
19923;SDS011;10124;53.068;18.224;2023-01-29T17:05:56;59.80;;;34.27;;
19923;SDS011;10124;53.068;18.224;2023-01-29T17:08:29;63.17;;;35.30;;
19923;SDS011;10124;53.068;18.224;2023-01-29T17:11:01;60.67;;;34.33;;
19923;SDS011;10124;53.068;18.224;2023-01-29T17:13:33;61.93;;;34.97;;
19923;SDS011;10124;53.068;18.224;2023-01-29T17:16:19;62.07;;;34.43;;
19923;SDS011;10124;53.068;18.224;2023-01-29T17:18:53;70.47;;;36.77;;
19923;SDS011;10124;53.068;18.224;2023-01-29T17:21:22;64.17;;;36.40;;
19923;SDS011;10124;53.068;18.224;2023-01-29T17:23:54;61.83;;;35.77;;
19923;SDS011;10124;53.068;18.224;2023-01-29T17:26:24;72.60;;;38.47;;
19923;SDS011;10124;53.068;18.224;2023-01-29T17:28:53;63.03;;;37.40;;